Time;durP1;ratioP1;P1;durP2;ratioP2;P2;SDS_P1;SDS_P2;PMS_P1;PMS_P2;Temp;Humidity;BMP_temperature;BMP_pressure;BME280_temperature;BME280_humidity;BME280_pressure;Samples;Min_cycle;Max_cycle;Signal;HPM_P1;HPM_P2
2023/09/11 00:01:19;;;;;;;22.30;16.10;;;;;;;10.20;100.00;100746.34;105309;1263;74000;-63
2023/09/11 00:03:48;;;;;;;23.00;16.30;;;;;;;10.17;100.00;100746.75;105377;1260;66424;-65
2023/09/11 00:06:15;;;;;;;21.80;16.80;;;;;;;10.13;100.00;100748.84;105235;1260;72582;-64
2023/09/11 00:08:43;;;;;;;23.40;16.10;;;;;;;10.09;100.00;100746.94;105253;1261;62563;-66
2023/09/11 00:11:10;;;;;;;21.80;16.70;;;;;;;10.05;100.00;100746.13;104759;1263;60860;-65
2023/09/11 00:13:37;;;;;;;25.30;19.20;;;;;;;10.02;100.00;100747.64;105623;1260;71632;-62
2023/09/11 00:16:04;;;;;;;26.00;19.30;;;;;;;10.01;100.00;100747.13;105121;1260;66956;-62
2023/09/11 00:18:31;;;;;;;27.30;20.90;;;;;;;9.99;100.00;100751.45;104867;1264;72559;-64
2023/09/11 00:20:58;;;;;;;28.80;22.00;;;;;;;9.99;100.00;100751.94;105233;1263;60432;-62
2023/09/11 00:23:25;;;;;;;29.00;21.80;;;;;;;10.01;100.00;100756.31;105349;1260;60303;-62
2023/09/11 00:25:52;;;;;;;26.80;20.90;;;;;;;10.03;100.00;100758.83;105370;1259;73397;-63
2023/09/11 00:28:19;;;;;;;26.10;20.60;;;;;;;10.04;100.00;100760.46;105606;1263;66871;-64
2023/09/11 00:30:46;;;;;;;25.90;19.30;;;;;;;10.06;100.00;100755.25;105144;1260;283272;-63
2023/09/11 00:33:13;;;;;;;25.20;19.90;;;;;;;10.09;100.00;100757.05;105240;1260;60442;-61
2023/09/11 00:35:44;;;;;;;21.30;16.80;;;;;;;10.10;100.00;100755.78;105188;1259;61200;-60
2023/09/11 00:38:11;;;;;;;22.50;16.10;;;;;;;10.09;100.00;100758.50;105199;1260;73955;-62
2023/09/11 00:40:38;;;;;;;21.00;14.70;;;;;;;10.07;100.00;100757.19;105180;1259;66941;-61
2023/09/11 00:43:05;;;;;;;21.40;16.70;;;;;;;10.04;100.00;100753.06;105122;1264;72542;-62
2023/09/11 00:45:32;;;;;;;20.30;15.10;;;;;;;10.00;100.00;100752.89;105164;1261;60518;-60
2023/09/11 00:47:59;;;;;;;18.50;14.60;;;;;;;9.96;100.00;100757.10;105231;1264;60457;-60
2023/09/11 00:50:27;;;;;;;20.80;15.30;;;;;;;9.95;100.00;100756.35;105473;1260;72695;-61
2023/09/11 00:52:53;;;;;;;18.70;13.90;;;;;;;9.96;100.00;100755.60;105087;1260;67197;-60
2023/09/11 00:55:20;;;;;;;19.20;14.40;;;;;;;9.96;100.00;100753.30;105071;1263;71617;-62
2023/09/11 00:57:48;;;;;;;17.90;12.30;;;;;;;9.96;100.00;100754.73;105071;1261;60467;-60
2023/09/11 01:00:15;;;;;;;18.30;13.40;;;;;;;9.95;100.00;100752.77;105551;1259;60355;-60
2023/09/11 01:02:42;;;;;;;17.50;12.60;;;;;;;9.91;100.00;100749.39;105153;1262;73884;-60
2023/09/11 01:05:10;;;;;;;16.60;12.20;;;;;;;9.86;100.00;100749.37;105314;1261;67388;-62
2023/09/11 01:07:36;;;;;;;20.10;11.90;;;;;;;9.83;100.00;100748.58;105452;1260;72011;-60
2023/09/11 01:10:07;;;;;;;15.30;11.60;;;;;;;9.79;100.00;100749.69;104984;1260;61905;-62
2023/09/11 01:12:37;;;;;;;14.40;11.10;;;;;;;9.81;100.00;100749.48;105142;1263;61571;-60
2023/09/11 01:15:06;;;;;;;13.20;9.70;;;;;;;9.80;100.00;100748.31;105282;1258;73601;-60
2023/09/11 01:18:00;;;;;;;17.90;11.00;;;;;;;9.76;100.00;100750.34;105250;1259;67781;-60
2023/09/11 01:21:00;;;;;;;13.50;10.20;;;;;;;9.69;100.00;100747.58;105080;1260;71860;-60
2023/09/11 01:24:19;;;;;;;12.10;9.40;;;;;;;9.62;100.00;100746.61;105405;1259;61963;-63
2023/09/11 01:27:37;;;;;;;12.70;9.00;;;;;;;9.55;100.00;100746.65;105234;1261;60376;-62
2023/09/11 01:30:04;;;;;;;11.80;8.30;;;;;;;9.49;100.00;100749.02;105174;1261;72654;-61
2023/09/11 01:32:31;;;;;;;11.40;8.50;;;;;;;9.44;100.00;100745.10;105251;1264;67279;-60
2023/09/11 01:34:59;;;;;;;11.20;9.10;;;;;;;9.39;100.00;100744.23;105185;1260;72699;-60
2023/09/11 01:37:27;;;;;;;12.60;8.10;;;;;;;9.35;100.00;100746.35;105294;1259;61900;-60
2023/09/11 01:39:55;;;;;;;11.30;8.30;;;;;;;9.33;100.00;100749.18;104943;1260;60416;-61
2023/09/11 01:42:42;;;;;;;13.30;8.90;;;;;;;9.33;100.00;100748.85;105343;1259;72991;-61
2023/09/11 01:45:10;;;;;;;12.00;9.00;;;;;;;9.33;100.00;100748.00;105269;1258;65920;-60
2023/09/11 01:47:37;;;;;;;12.00;8.70;;;;;;;9.34;100.00;100746.86;105544;1259;71884;-62
2023/09/11 01:50:04;;;;;;;11.70;9.10;;;;;;;9.39;100.00;100748.06;105437;1258;62613;-60
2023/09/11 01:52:31;;;;;;;12.20;8.10;;;;;;;9.42;100.00;100751.66;105312;1259;60435;-60
2023/09/11 01:54:58;;;;;;;10.60;8.30;;;;;;;9.42;100.00;100751.15;105262;1260;73885;-60
2023/09/11 01:57:27;;;;;;;10.40;7.80;;;;;;;9.44;100.00;100753.56;105334;1259;67134;-60
2023/09/11 01:59:54;;;;;;;12.30;7.50;;;;;;;9.44;100.00;100751.94;105262;1264;72133;-62
2023/09/11 02:02:21;;;;;;;9.70;8.30;;;;;;;9.45;100.00;100748.73;105408;1263;60383;-60
2023/09/11 02:04:49;;;;;;;15.10;9.40;;;;;;;9.45;100.00;100747.77;105339;1264;60426;-60
2023/09/11 02:07:16;;;;;;;12.90;8.50;;;;;;;9.46;100.00;100746.00;105150;1263;73865;-60
2023/09/11 02:09:43;;;;;;;13.10;9.20;;;;;;;9.49;100.00;100747.80;105770;1263;65918;-62
2023/09/11 02:12:10;;;;;;;12.70;9.00;;;;;;;9.54;100.00;100750.80;105079;1264;72048;-61
2023/09/11 02:14:37;;;;;;;10.50;8.40;;;;;;;9.58;100.00;100749.45;105147;1264;60537;-60
2023/09/11 02:17:04;;;;;;;12.90;8.70;;;;;;;9.63;100.00;100749.95;105104;1263;60510;-60
2023/09/11 02:19:31;;;;;;;10.50;8.60;;;;;;;9.67;100.00;100751.69;105294;1260;72535;-62
2023/09/11 02:21:59;;;;;;;11.00;7.90;;;;;;;9.69;100.00;100749.63;105669;1259;67312;-60
2023/09/11 02:24:27;;;;;;;11.30;8.40;;;;;;;9.72;100.00;100748.69;105229;1259;72710;-59
2023/09/11 02:26:55;;;;;;;11.10;8.60;;;;;;;9.73;100.00;100749.02;105344;1263;60700;-60
2023/09/11 02:29:22;;;;;;;11.10;8.10;;;;;;;9.77;100.00;100749.20;105503;1259;60808;-60
2023/09/11 02:31:49;;;;;;;11.50;8.70;;;;;;;9.78;100.00;100751.52;105441;1264;73935;-62
2023/09/11 02:34:16;;;;;;;13.00;9.90;;;;;;;9.80;100.00;100755.40;105287;1262;65819;-62
2023/09/11 02:36:43;;;;;;;12.90;9.50;;;;;;;9.84;100.00;100758.63;105282;1259;72534;-61
2023/09/11 02:39:10;;;;;;;13.80;8.80;;;;;;;9.89;100.00;100758.13;105212;1264;61761;-61
2023/09/11 02:41:37;;;;;;;12.30;9.50;;;;;;;9.93;100.00;100758.30;105419;1260;60499;-64
2023/09/11 02:44:05;;;;;;;13.20;8.90;;;;;;;10.02;100.00;100757.44;105289;1259;73807;-61
2023/09/11 02:46:32;;;;;;;12.10;9.10;;;;;;;10.09;100.00;100755.17;105267;1260;67254;-61
2023/09/11 02:48:59;;;;;;;11.80;8.00;;;;;;;10.14;100.00;100757.13;105388;1263;71435;-61
2023/09/11 02:51:28;;;;;;;11.70;8.30;;;;;;;10.17;100.00;100758.73;105541;1259;61936;-62
2023/09/11 02:53:55;;;;;;;11.60;8.00;;;;;;;10.18;100.00;100751.08;105717;1259;60456;-64
2023/09/11 02:56:22;;;;;;;11.60;8.50;;;;;;;10.20;100.00;100751.81;105414;1261;74742;-62
2023/09/11 02:58:50;;;;;;;13.30;8.90;;;;;;;10.19;100.00;100753.58;105360;1264;65886;-61
2023/09/11 03:01:17;;;;;;;12.60;9.10;;;;;;;10.19;100.00;100757.91;105238;1259;72167;-63
2023/09/11 03:03:46;;;;;;;13.30;9.50;;;;;;;10.19;100.00;100756.08;105894;1259;60778;-61
2023/09/11 03:06:13;;;;;;;19.50;11.70;;;;;;;10.15;100.00;100753.98;105542;1259;61116;-63
2023/09/11 03:08:40;;;;;;;25.30;15.00;;;;;;;10.13;100.00;100755.69;105163;1259;73103;-63
2023/09/11 03:11:09;;;;;;;37.10;21.50;;;;;;;10.10;100.00;100752.14;105043;1264;67180;-62
2023/09/11 03:13:37;;;;;;;25.40;15.50;;;;;;;10.09;100.00;100755.96;105113;1259;72449;-60
2023/09/11 03:16:09;;;;;;;33.20;20.00;;;;;;;10.08;100.00;100761.05;105223;1263;60499;-65
2023/09/11 03:18:36;;;;;;;40.30;23.20;;;;;;;10.07;100.00;100761.69;105396;1259;60426;-60
2023/09/11 03:21:05;;;;;;;37.90;22.30;;;;;;;10.06;100.00;100762.98;105575;1259;73988;-63
2023/09/11 03:23:33;;;;;;;34.00;20.10;;;;;;;10.06;100.00;100760.73;105415;1262;66431;-61
2023/09/11 03:26:00;;;;;;;30.40;17.70;;;;;;;10.07;100.00;100759.31;105247;1263;71444;-63
2023/09/11 03:28:29;;;;;;;27.00;16.30;;;;;;;10.07;100.00;100759.30;105375;1259;61842;-60
2023/09/11 03:30:56;;;;;;;18.00;12.30;;;;;;;10.07;100.00;100757.66;105672;1259;60362;-60
2023/09/11 03:33:24;;;;;;;18.60;11.20;;;;;;;10.08;100.00;100760.23;105525;1258;74522;-62
2023/09/11 03:35:51;;;;;;;16.60;10.50;;;;;;;10.10;100.00;100762.98;105325;1261;66906;-61
2023/09/11 03:38:18;;;;;;;17.60;9.90;;;;;;;10.13;100.00;100765.27;105679;1263;71423;-62
2023/09/11 03:40:46;;;;;;;14.60;9.30;;;;;;;10.15;100.00;100770.86;105241;1259;60454;-60
2023/09/11 03:43:13;;;;;;;15.30;9.60;;;;;;;10.18;100.00;100769.50;105277;1259;60447;-60
2023/09/11 03:45:41;;;;;;;13.20;9.30;;;;;;;10.22;100.00;100762.30;105212;1259;74626;-62
2023/09/11 03:48:08;;;;;;;20.20;10.10;;;;;;;10.28;100.00;100758.86;105181;1263;65734;-61
2023/09/11 03:50:35;;;;;;;10.80;8.60;;;;;;;10.38;100.00;100760.02;105065;1263;71102;-61
2023/09/11 03:53:03;;;;;;;12.50;8.90;;;;;;;10.52;100.00;100764.55;105197;1264;60478;-63
2023/09/11 03:55:31;;;;;;;14.50;10.10;;;;;;;10.68;100.00;100755.67;105470;1259;60480;-63
2023/09/11 03:57:59;;;;;;;12.90;9.00;;;;;;;10.86;100.00;100753.80;105193;1270;72447;-62
2023/09/11 04:00:26;;;;;;;12.60;9.80;;;;;;;11.09;100.00;100761.30;105320;1263;66010;-64
2023/09/11 04:02:53;;;;;;;14.50;9.60;;;;;;;11.32;100.00;100759.42;104954;1262;71559;-62
2023/09/11 04:05:21;;;;;;;14.60;8.70;;;;;;;11.52;100.00;100755.02;105363;1260;60553;-64
2023/09/11 04:07:48;;;;;;;14.70;9.30;;;;;;;11.69;100.00;100754.80;105422;1258;60346;-60
2023/09/11 04:10:15;;;;;;;15.30;9.90;;;;;;;11.84;100.00;100759.46;105361;1259;72445;-63
2023/09/11 04:12:42;;;;;;;12.50;8.60;;;;;;;12.01;100.00;100765.39;105112;1258;67641;-60
2023/09/11 04:15:09;;;;;;;13.00;8.60;;;;;;;12.29;100.00;100762.27;105445;1259;72582;-60
2023/09/11 04:17:36;;;;;;;11.70;8.90;;;;;;;12.71;100.00;100762.05;105303;1263;60467;-60
2023/09/11 04:20:03;;;;;;;10.60;7.80;;;;;;;13.29;100.00;100761.18;105477;1259;60187;-60
2023/09/11 04:22:31;;;;;;;12.00;8.00;;;;;;;14.15;100.00;100765.09;105562;1259;72781;-61
2023/09/11 04:24:58;;;;;;;13.60;8.10;;;;;;;15.15;100.00;100760.50;105022;1259;66224;-60
2023/09/11 04:27:25;;;;;;;12.20;6.90;;;;;;;16.27;100.00;100755.65;105332;1264;72489;-61
2023/09/11 04:29:51;;;;;;;12.80;9.00;;;;;;;17.34;100.00;100745.89;105239;1260;61850;-60
2023/09/11 04:32:20;;;;;;;12.70;8.90;;;;;;;18.42;100.00;100726.39;105447;1259;60391;-61
2023/09/11 04:34:48;;;;;;;13.10;9.70;;;;;;;19.44;100.00;100695.20;104986;1263;74193;-60
2023/09/11 04:37:17;;;;;;;11.50;9.30;;;;;;;20.38;100.00;100666.21;105256;1260;66390;-60
2023/09/11 04:39:44;;;;;;;11.40;8.80;;;;;;;21.36;100.00;100632.47;105168;1260;71538;-61
2023/09/11 04:42:11;;;;;;;12.00;8.50;;;;;;;22.24;100.00;100608.22;105215;1263;60588;-60
2023/09/11 04:44:38;;;;;;;11.30;8.80;;;;;;;22.85;100.00;100596.30;105187;1263;60597;-60
2023/09/11 04:47:06;;;;;;;11.90;8.40;;;;;;;23.37;100.00;100588.34;105306;1259;72665;-60
2023/09/11 04:49:34;;;;;;;10.10;7.90;;;;;;;23.80;100.00;100586.55;105588;1262;65761;-63
2023/09/11 04:52:01;;;;;;;10.80;8.70;;;;;;;24.31;100.00;100582.37;105311;1264;71886;-60
2023/09/11 04:54:28;;;;;;;10.60;9.40;;;;;;;24.85;100.00;100581.27;105674;1259;60457;-61
2023/09/11 04:56:55;;;;;;;9.70;8.60;;;;;;;25.32;100.00;100575.93;105292;1259;61178;-60
2023/09/11 04:59:22;;;;;;;11.00;9.20;;;;;;;25.79;100.00;100574.75;105149;1259;73892;-61
2023/09/11 05:01:49;;;;;;;12.40;8.30;;;;;;;26.24;99.61;100576.42;105102;1262;67440;-62
2023/09/11 05:04:16;;;;;;;11.90;8.40;;;;;;;26.67;93.66;100572.44;105415;1264;73533;-64
2023/09/11 05:06:44;;;;;;;9.10;8.00;;;;;;;27.07;86.00;100570.20;105237;1261;59766;-60
2023/09/11 05:09:11;;;;;;;9.10;8.10;;;;;;;27.29;77.13;100568.34;105166;1260;60442;-62
2023/09/11 05:11:42;;;;;;;10.70;9.00;;;;;;;27.32;71.23;100567.04;105298;1259;72941;-62
2023/09/11 05:14:09;;;;;;;9.30;8.30;;;;;;;27.35;68.70;100563.98;105227;1261;67208;-60
2023/09/11 05:16:36;;;;;;;11.80;8.60;;;;;;;27.45;66.87;100564.98;105675;1258;71570;-63
2023/09/11 05:19:03;;;;;;;10.40;8.20;;;;;;;27.27;62.42;100565.05;105187;1263;60473;-60
2023/09/11 05:21:32;;;;;;;8.50;7.50;;;;;;;26.83;63.65;100565.21;105128;1259;60340;-60
2023/09/11 05:23:59;;;;;;;9.40;8.10;;;;;;;26.33;67.48;100562.56;104905;1259;73983;-62
2023/09/11 05:26:26;;;;;;;10.80;8.80;;;;;;;25.88;72.13;100566.64;105106;1259;67148;-60
2023/09/11 05:28:53;;;;;;;9.70;8.70;;;;;;;25.47;75.97;100564.17;105235;1260;72890;-61
2023/09/11 05:31:20;;;;;;;10.90;8.80;;;;;;;25.08;82.31;100563.94;105163;1258;60683;-60
2023/09/11 05:33:47;;;;;;;11.70;8.80;;;;;;;24.75;88.71;100568.34;105327;1259;60423;-62
2023/09/11 05:36:14;;;;;;;15.80;9.70;;;;;;;24.42;90.93;100569.33;105218;1263;72528;-61
2023/09/11 05:38:41;;;;;;;11.90;8.40;;;;;;;24.03;98.07;100573.39;105299;1259;67223;-60
2023/09/11 05:41:08;;;;;;;11.50;9.40;;;;;;;23.84;100.00;100573.95;104941;1258;73149;-60
2023/09/11 05:43:36;;;;;;;11.70;8.80;;;;;;;23.77;100.00;100569.52;105493;1259;60316;-61
2023/09/11 05:46:03;;;;;;;12.60;8.90;;;;;;;23.65;100.00;100572.30;104902;1263;60387;-60
2023/09/11 05:48:30;;;;;;;13.40;11.80;;;;;;;23.50;100.00;100576.17;105221;1259;73943;-59
2023/09/11 05:50:58;;;;;;;15.50;11.70;;;;;;;23.47;100.00;100571.27;105225;1259;67936;-61
2023/09/11 05:53:25;;;;;;;16.00;13.50;;;;;;;23.49;100.00;100567.75;105220;1259;73381;-59
2023/09/11 05:55:52;;;;;;;13.00;11.20;;;;;;;23.51;100.00;100570.06;105208;1259;61058;-60
2023/09/11 05:58:19;;;;;;;12.40;11.00;;;;;;;23.53;100.00;100573.48;105426;1259;60362;-60
2023/09/11 06:00:47;;;;;;;13.40;9.80;;;;;;;23.54;100.00;100572.51;105204;1258;76042;-62
2023/09/11 06:03:14;;;;;;;12.40;10.70;;;;;;;23.61;100.00;100575.73;105175;1259;69819;-60
2023/09/11 06:05:42;;;;;;;10.50;9.40;;;;;;;23.69;100.00;100580.41;105375;1260;72702;-61
2023/09/11 06:08:09;;;;;;;13.10;10.30;;;;;;;23.71;100.00;100580.41;105584;1259;60769;-60
2023/09/11 06:10:36;;;;;;;11.20;10.00;;;;;;;23.86;100.00;100581.30;105245;1263;60430;-60
2023/09/11 06:13:03;;;;;;;11.90;9.00;;;;;;;24.11;100.00;100580.43;105652;1263;73862;-61
2023/09/11 06:15:30;;;;;;;10.40;9.30;;;;;;;24.30;100.00;100579.59;105170;1258;67177;-60
2023/09/11 06:17:57;;;;;;;11.00;8.70;;;;;;;24.46;100.00;100578.61;105122;1259;71358;-61
2023/09/11 06:20:25;;;;;;;12.80;9.70;;;;;;;24.70;100.00;100578.10;105338;1263;60446;-61
2023/09/11 06:22:52;;;;;;;10.60;9.50;;;;;;;24.96;100.00;100579.28;105213;1264;60371;-60
2023/09/11 06:25:19;;;;;;;9.50;8.30;;;;;;;25.29;99.97;100574.50;105291;1262;73567;-63
2023/09/11 06:27:46;;;;;;;11.10;8.90;;;;;;;25.64;98.06;100569.48;105462;1260;67205;-62
2023/09/11 06:30:13;;;;;;;11.30;8.40;;;;;;;26.17;93.02;100569.68;105052;1260;72369;-60
2023/09/11 06:32:41;;;;;;;11.00;8.40;;;;;;;26.91;82.77;100567.20;105206;1263;60401;-60
2023/09/11 06:35:09;;;;;;;9.20;7.80;;;;;;;27.51;73.60;100564.52;105359;1259;60914;-62
2023/09/11 06:37:37;;;;;;;10.10;8.60;;;;;;;28.06;69.54;100565.23;105223;1259;72495;-61
2023/09/11 06:40:09;;;;;;;9.30;8.40;;;;;;;28.68;62.45;100566.59;105170;1259;66311;-62
2023/09/11 06:42:36;;;;;;;9.90;8.60;;;;;;;29.36;56.06;100564.25;104949;1263;71239;-61
2023/09/11 06:45:04;;;;;;;9.50;8.50;;;;;;;29.80;51.13;100562.44;105251;1259;60333;-63
2023/09/11 06:47:33;;;;;;;11.30;8.30;;;;;;;30.15;49.69;100563.14;105296;1263;60334;-61
2023/09/11 06:50:00;;;;;;;8.80;7.70;;;;;;;30.50;47.61;100561.06;105154;1263;75235;-62
2023/09/11 06:52:27;;;;;;;8.20;7.40;;;;;;;30.79;45.34;100558.86;105250;1259;67385;-60
2023/09/11 06:54:54;;;;;;;8.30;7.50;;;;;;;31.08;44.08;100556.02;105195;1259;71455;-61
2023/09/11 06:57:22;;;;;;;10.10;9.00;;;;;;;31.42;43.11;100555.84;105209;1263;60449;-61
2023/09/11 06:59:49;;;;;;;10.30;8.90;;;;;;;31.71;41.27;100554.15;105487;1259;60525;-62
2023/09/11 07:02:16;;;;;;;10.30;8.60;;;;;;;31.92;40.57;100550.25;104975;1259;72381;-61
2023/09/11 07:04:43;;;;;;;9.70;7.70;;;;;;;32.08;39.67;100552.48;105159;1263;67064;-63
2023/09/11 07:07:10;;;;;;;8.60;7.70;;;;;;;32.16;39.07;100549.58;104947;1260;71608;-61
2023/09/11 07:09:37;;;;;;;8.80;7.70;;;;;;;32.26;38.81;100547.75;105190;1259;60310;-61
2023/09/11 07:12:04;;;;;;;8.60;7.60;;;;;;;32.44;38.61;100548.36;105222;1259;60886;-62
2023/09/11 07:14:31;;;;;;;8.40;6.70;;;;;;;32.54;37.72;100549.30;105166;1263;73947;-61
2023/09/11 07:17:02;;;;;;;8.40;6.30;;;;;;;32.64;37.28;100550.42;105884;1261;67047;-63
2023/09/11 07:19:29;;;;;;;7.30;6.60;;;;;;;32.85;37.05;100548.31;105299;1259;63948;-61
2023/09/11 07:21:56;;;;;;;10.10;6.40;;;;;;;33.15;36.70;100544.81;105305;1260;60303;-63
2023/09/11 07:24:23;;;;;;;8.90;6.90;;;;;;;33.39;35.88;100547.41;104989;1263;60510;-61
2023/09/11 07:26:50;;;;;;;7.10;6.50;;;;;;;33.57;35.57;100549.09;105324;1259;65334;-62
2023/09/11 07:29:17;;;;;;;6.60;6.00;;;;;;;33.65;34.72;100553.40;104776;1259;61032;-61
2023/09/11 07:31:46;;;;;;;7.30;6.60;;;;;;;33.62;34.41;100549.65;105185;1259;62917;-60
2023/09/11 07:34:14;;;;;;;7.00;6.20;;;;;;;33.60;34.21;100549.27;105561;1259;60455;-63
2023/09/11 07:36:42;;;;;;;8.50;6.30;;;;;;;33.75;33.72;100547.17;105321;1259;60415;-63
2023/09/11 07:39:09;;;;;;;7.20;6.50;;;;;;;33.89;33.67;100545.32;105195;1263;65771;-62
2023/09/11 07:41:36;;;;;;;6.50;5.90;;;;;;;34.03;33.38;100541.77;105229;1258;60467;-61
2023/09/11 07:44:03;;;;;;;7.20;6.50;;;;;;;33.92;33.21;100539.03;105424;1259;62727;-63
2023/09/11 07:46:31;;;;;;;7.20;6.40;;;;;;;33.56;33.56;100542.40;104778;1264;60410;-61
2023/09/11 07:48:58;;;;;;;6.20;5.60;;;;;;;33.11;34.02;100540.38;105263;1262;59309;-61
2023/09/11 07:51:26;;;;;;;6.70;6.00;;;;;;;32.55;35.04;100541.64;105227;1258;65359;-61
2023/09/11 07:53:53;;;;;;;6.40;5.70;;;;;;;32.17;36.44;100544.21;105247;1259;60556;-60
2023/09/11 07:56:20;;;;;;;6.60;5.90;;;;;;;31.96;37.13;100543.72;104919;1264;72699;-61
2023/09/11 07:58:50;;;;;;;7.50;6.00;;;;;;;31.62;37.63;100541.43;105514;1259;60449;-61
2023/09/11 08:01:25;;;;;;;7.90;5.50;;;;;;;31.28;37.89;100536.88;105372;1260;60440;-60
2023/09/11 08:03:52;;;;;;;7.90;6.10;;;;;;;31.14;38.27;100537.30;105016;1259;72564;-60
2023/09/11 08:06:19;;;;;;;6.80;6.00;;;;;;;30.88;39.04;100540.36;104932;1259;67480;-61
2023/09/11 08:08:47;;;;;;;7.70;6.00;;;;;;;30.34;39.82;100537.70;105173;1263;72590;-60
2023/09/11 08:11:15;;;;;;;6.10;5.50;;;;;;;30.01;40.74;100535.83;105130;1264;60954;-60
2023/09/11 08:13:43;;;;;;;7.70;5.70;;;;;;;29.66;41.85;100535.80;105193;1258;62214;-60
2023/09/11 08:16:10;;;;;;;6.40;4.60;;;;;;;29.30;40.63;100533.02;105354;1259;75090;-61
2023/09/11 08:18:37;;;;;;;5.80;4.60;;;;;;;29.27;41.60;100533.55;105303;1263;68393;-62
2023/09/11 08:21:05;;;;;;;6.30;3.90;;;;;;;29.37;40.82;100531.79;105178;1260;72132;-60
2023/09/11 08:23:32;;;;;;;4.30;3.90;;;;;;;29.48;39.84;100530.91;105204;1259;62080;-61
2023/09/11 08:26:01;;;;;;;4.30;3.20;;;;;;;29.69;39.81;100527.64;104961;1260;61140;-61
2023/09/11 08:28:28;;;;;;;5.40;3.70;;;;;;;30.03;38.40;100521.83;105099;1258;74793;-62
2023/09/11 08:30:56;;;;;;;5.30;4.20;;;;;;;30.28;38.69;100521.63;105253;1263;68144;-61
2023/09/11 08:33:24;;;;;;;4.50;3.80;;;;;;;30.38;37.87;100520.66;105287;1259;72972;-61
2023/09/11 08:35:54;;;;;;;4.70;3.70;;;;;;;30.27;37.10;100521.69;105342;1260;60478;-61
2023/09/11 08:38:21;;;;;;;5.40;3.90;;;;;;;30.10;36.70;100517.01;105662;1262;60323;-63
2023/09/11 08:40:48;;;;;;;5.00;3.60;;;;;;;30.06;37.51;100509.71;105391;1258;74540;-63
2023/09/11 08:43:15;;;;;;;6.10;4.40;;;;;;;30.19;37.30;100510.53;105365;1259;67683;-61
2023/09/11 08:45:42;;;;;;;5.80;4.60;;;;;;;30.28;37.08;100509.36;105416;1259;72710;-61
2023/09/11 08:48:11;;;;;;;6.70;4.70;;;;;;;29.84;37.49;100511.23;105078;1259;62702;-60
2023/09/11 08:50:48;;;;;;;4.90;4.10;;;;;;;29.19;38.34;100510.27;105631;1265;60470;-62
2023/09/11 08:53:17;;;;;;;4.80;4.30;;;;;;;28.86;38.81;100513.29;105077;1262;73755;-61
2023/09/11 08:55:47;;;;;;;5.10;4.20;;;;;;;28.86;39.33;100508.23;105455;1258;67249;-60
2023/09/11 08:58:14;;;;;;;5.40;3.90;;;;;;;29.23;39.85;100499.60;105469;1260;71420;-60
2023/09/11 09:00:42;;;;;;;4.80;4.30;;;;;;;29.83;38.79;100497.98;105257;1259;60356;-61
2023/09/11 09:03:09;;;;;;;7.20;5.50;;;;;;;30.30;37.89;100489.30;105135;1263;60445;-60
2023/09/11 09:05:36;;;;;;;6.80;5.30;;;;;;;30.66;37.55;100489.21;105305;1262;74764;-60
2023/09/11 09:08:04;;;;;;;8.00;4.80;;;;;;;30.75;38.07;100487.17;105389;1259;66967;-61
2023/09/11 09:10:31;;;;;;;5.70;4.20;;;;;;;30.82;36.75;100481.89;105346;1258;72599;-63
2023/09/11 09:12:58;;;;;;;5.10;3.80;;;;;;;30.97;36.66;100477.29;105009;1260;60941;-60
2023/09/11 09:15:25;;;;;;;8.60;3.90;;;;;;;31.32;35.06;100477.68;105292;1265;60429;-60
2023/09/11 09:17:52;;;;;;;4.30;3.40;;;;;;;31.59;34.44;100479.72;105261;1263;65268;-60
2023/09/11 09:20:20;;;;;;;4.60;3.20;;;;;;;31.76;32.27;100478.67;105665;1261;60326;-61
2023/09/11 09:22:51;;;;;;;4.20;3.40;;;;;;;31.59;31.51;100473.02;104916;1263;65049;-62
2023/09/11 09:25:18;;;;;;;6.00;3.50;;;;;;;31.44;32.64;100474.73;105410;1259;60398;-60
2023/09/11 09:27:45;;;;;;;9.20;3.80;;;;;;;31.44;32.35;100475.53;105283;1263;60432;-60
2023/09/11 09:30:23;;;;;;;5.00;3.70;;;;;;;31.60;32.12;100478.35;105483;1259;73891;-60
2023/09/11 09:32:51;;;;;;;5.90;4.40;;;;;;;31.56;32.12;100471.56;105288;1263;66636;-61
2023/09/11 09:35:34;;;;;;;4.50;3.20;;;;;;;31.51;32.30;100471.63;105357;1259;72967;-60
2023/09/11 09:38:01;;;;;;;4.40;3.60;;;;;;;31.30;32.10;100467.27;105119;1259;60333;-60
2023/09/11 09:40:32;;;;;;;7.60;4.90;;;;;;;31.09;31.82;100462.13;105435;1259;60330;-62
2023/09/11 09:43:00;;;;;;;5.40;3.70;;;;;;;30.74;32.51;100460.70;105202;1259;72820;-60
2023/09/11 09:45:29;;;;;;;5.30;3.80;;;;;;;30.50;32.48;100457.67;105221;1264;65795;-60
2023/09/11 09:48:06;;;;;;;6.10;4.80;;;;;;;30.05;32.85;100459.71;105184;1259;71209;-60
2023/09/11 09:50:52;;;;;;;5.70;4.90;;;;;;;29.52;34.19;100463.08;105384;1259;60980;-63
2023/09/11 09:53:33;;;;;;;7.10;5.50;;;;;;;28.87;35.27;100461.16;105262;1259;60212;-61
2023/09/11 09:56:05;;;;;;;7.30;5.00;;;;;;;28.32;36.48;100467.85;105712;1263;74434;-62
2023/09/11 09:58:39;;;;;;;5.90;4.10;;;;;;;28.06;36.50;100462.08;105076;1259;68380;-60
2023/09/11 10:01:09;;;;;;;6.50;4.20;;;;;;;28.13;37.16;100461.69;105215;1260;72524;-61
2023/09/11 10:03:58;;;;;;;5.10;4.40;;;;;;;28.50;37.77;100460.23;105405;1259;60549;-62
2023/09/11 10:06:27;;;;;;;4.80;4.30;;;;;;;28.86;37.55;100455.05;105287;1259;60450;-60
2023/09/11 10:09:10;;;;;;;4.30;3.60;;;;;;;29.09;37.65;100456.99;105074;1263;75758;-61
2023/09/11 10:11:38;;;;;;;5.60;4.90;;;;;;;29.12;36.82;100452.53;104979;1263;67535;-62
2023/09/11 10:14:07;;;;;;;7.60;4.80;;;;;;;28.63;37.91;100456.70;104913;1259;73660;-61
2023/09/11 10:16:34;;;;;;;5.90;4.70;;;;;;;28.26;39.05;100463.76;105157;1264;61040;-60
2023/09/11 10:19:01;;;;;;;7.50;5.10;;;;;;;27.93;40.01;100461.39;105433;1259;60576;-63
2023/09/11 10:21:29;;;;;;;6.10;5.30;;;;;;;27.52;41.02;100455.54;105179;1259;73527;-61
2023/09/11 10:23:57;;;;;;;5.70;5.00;;;;;;;27.29;43.62;100454.76;105205;1263;68847;-62
2023/09/11 10:26:31;;;;;;;6.30;4.90;;;;;;;27.41;43.54;100450.73;105126;1259;74919;-61
2023/09/11 10:29:01;;;;;;;6.10;4.90;;;;;;;27.81;43.54;100445.92;105733;1263;60458;-63
2023/09/11 10:32:18;;;;;;;5.40;4.80;;;;;;;28.39;41.98;100435.71;104928;1259;60944;-62
2023/09/11 10:34:45;;;;;;;9.00;4.10;;;;;;;29.19;40.23;100430.33;105099;1264;74158;-61
2023/09/11 10:37:11;;;;;;;4.60;3.90;;;;;;;29.61;38.21;100428.94;105063;1259;68240;-62
2023/09/11 10:39:38;;;;;;;5.40;4.20;;;;;;;29.98;37.63;100426.44;105176;1259;73382;-62
2023/09/11 10:42:06;;;;;;;5.60;4.40;;;;;;;30.28;36.18;100421.91;105490;1263;60368;-63
2023/09/11 10:44:37;;;;;;;5.80;4.50;;;;;;;30.49;35.24;100425.61;105288;1259;60503;-60
2023/09/11 10:47:05;;;;;;;6.00;4.40;;;;;;;30.72;35.35;100415.98;105428;1259;74596;-62
2023/09/11 10:49:36;;;;;;;5.20;4.20;;;;;;;31.06;34.27;100416.77;105269;1260;66007;-61
2023/09/11 10:52:05;;;;;;;5.80;4.70;;;;;;;31.31;33.95;100417.29;105231;1261;72735;-63
2023/09/11 10:54:32;;;;;;;6.10;5.20;;;;;;;31.34;33.50;100419.52;105752;1261;60901;-61
2023/09/11 10:56:59;;;;;;;8.60;4.90;;;;;;;31.19;33.22;100417.42;105275;1259;60487;-62
2023/09/11 10:59:27;;;;;;;5.30;4.40;;;;;;;30.64;33.84;100417.00;105202;1259;63799;-63
2023/09/11 11:01:54;;;;;;;8.20;5.30;;;;;;;30.08;34.72;100412.15;105193;1259;69006;-65
2023/09/11 11:04:22;;;;;;;8.40;5.00;;;;;;;29.74;35.55;100413.88;105274;1265;72786;-61
2023/09/11 11:06:50;;;;;;;5.20;4.20;;;;;;;29.44;35.80;100416.38;105600;1265;61173;-61
2023/09/11 11:09:33;;;;;;;4.80;4.00;;;;;;;29.03;36.12;100416.71;105007;1259;60540;-59
2023/09/11 11:12:06;;;;;;;6.20;4.20;;;;;;;28.64;37.24;100413.45;105453;1263;75060;-64
2023/09/11 11:14:33;;;;;;;5.10;3.90;;;;;;;28.62;38.15;100408.03;105003;1260;68351;-62
2023/09/11 11:17:07;;;;;;;5.50;3.80;;;;;;;28.84;38.12;100406.05;105270;1264;73141;-62